Four Corners Regional Airport Farmington US
ICAO: KFMN
IATA: FMN
Category: Medium
Scheduled Services: No

Elevation: 5506 ft
TransAlt. 18000 ft.

Airport Communications:
ATIS:127.15
DENVER CNTR:118.575
CTAF:118.9
GND:121.7
ALBUQUERQUE RDO:122.4
FARMINGTON TWR:118.9
UNICOM:122.95

KFMN Zoom In..

Runways:

(A) RW 05 length 6500 ft width 150 ft
---- / hdg 53

(B) RW 07 length 6704 ft width 100 ft
---- / hdg 76

(C) RW 23 length 6500 ft width 150 ft
---- / hdg 233

(D) RW 25 length 6704 ft width 100 ft
ILS 111.90 / hdg 256

Location; KFMN
Day. 16 / Time. 17.53 Zulu
* Altimeter: 30.22
* Temperature: 27° c. 80.6°f.
* Wind from: 170° Speed 06 kn.
Dewpoint: 12° c.
Visibility: 10 Statute Miles.
Clouds: Clear (automated report).

KFMN 161753Z 17006KT 10SM CLR 27/12 A3022 RMK AO2 SLP168 T02670117 10272 20206 58008


Wind From 170°
Speed 06 kn.

 
 
jpsmedia.com for Web Design worldairports.se 2018   terms of use